sensor_id;sensor_type;location;lat;lon;timestamp;P1;durP1;ratioP1;P2;durP2;ratioP2
17488;SDS011;8861;52.644;4.734;2022-07-17T00:01:13;4.20;;;2.70;;
17488;SDS011;8861;52.644;4.734;2022-07-17T00:03:40;3.57;;;2.60;;
17488;SDS011;8861;52.644;4.734;2022-07-17T00:06:08;3.50;;;2.90;;
17488;SDS011;8861;52.644;4.734;2022-07-17T00:08:35;6.37;;;2.80;;
17488;SDS011;8861;52.644;4.734;2022-07-17T00:11:02;3.87;;;2.80;;
17488;SDS011;8861;52.644;4.734;2022-07-17T00:13:29;3.33;;;2.80;;
17488;SDS011;8861;52.644;4.734;2022-07-17T00:15:56;5.60;;;2.40;;
17488;SDS011;8861;52.644;4.734;2022-07-17T00:18:23;2.87;;;2.57;;
17488;SDS011;8861;52.644;4.734;2022-07-17T00:20:50;2.77;;;2.20;;
17488;SDS011;8861;52.644;4.734;2022-07-17T00:23:18;3.93;;;2.60;;
17488;SDS011;8861;52.644;4.734;2022-07-17T00:25:46;3.57;;;2.53;;
17488;SDS011;8861;52.644;4.734;2022-07-17T00:28:12;3.10;;;2.80;;
17488;SDS011;8861;52.644;4.734;2022-07-17T00:30:39;3.97;;;2.50;;
17488;SDS011;8861;52.644;4.734;2022-07-17T00:33:06;3.50;;;2.80;;
17488;SDS011;8861;52.644;4.734;2022-07-17T00:35:33;2.83;;;2.40;;
17488;SDS011;8861;52.644;4.734;2022-07-17T00:38:00;3.63;;;2.83;;
17488;SDS011;8861;52.644;4.734;2022-07-17T00:40:28;3.10;;;2.47;;
17488;SDS011;8861;52.644;4.734;2022-07-17T00:42:55;3.80;;;2.80;;
17488;SDS011;8861;52.644;4.734;2022-07-17T00:45:22;3.33;;;2.50;;
17488;SDS011;8861;52.644;4.734;2022-07-17T00:47:52;4.80;;;2.57;;
17488;SDS011;8861;52.644;4.734;2022-07-17T00:50:20;3.70;;;2.70;;
17488;SDS011;8861;52.644;4.734;2022-07-17T00:52:47;3.13;;;2.50;;
17488;SDS011;8861;52.644;4.734;2022-07-17T00:55:14;3.83;;;2.60;;
17488;SDS011;8861;52.644;4.734;2022-07-17T00:57:45;3.17;;;2.23;;
17488;SDS011;8861;52.644;4.734;2022-07-17T01:00:13;2.87;;;2.53;;
17488;SDS011;8861;52.644;4.734;2022-07-17T01:02:44;7.47;;;2.87;;
17488;SDS011;8861;52.644;4.734;2022-07-17T01:05:13;5.40;;;2.87;;
17488;SDS011;8861;52.644;4.734;2022-07-17T01:07:40;3.97;;;2.53;;
17488;SDS011;8861;52.644;4.734;2022-07-17T01:10:08;3.63;;;2.50;;
17488;SDS011;8861;52.644;4.734;2022-07-17T01:12:35;3.77;;;2.60;;
17488;SDS011;8861;52.644;4.734;2022-07-17T01:15:04;3.27;;;2.40;;
17488;SDS011;8861;52.644;4.734;2022-07-17T01:17:32;3.90;;;2.73;;
17488;SDS011;8861;52.644;4.734;2022-07-17T01:20:00;4.30;;;2.53;;
17488;SDS011;8861;52.644;4.734;2022-07-17T01:22:29;3.10;;;2.80;;
17488;SDS011;8861;52.644;4.734;2022-07-17T01:24:56;3.93;;;2.83;;
17488;SDS011;8861;52.644;4.734;2022-07-17T01:27:23;3.93;;;2.60;;
17488;SDS011;8861;52.644;4.734;2022-07-17T01:29:49;3.40;;;2.90;;
17488;SDS011;8861;52.644;4.734;2022-07-17T01:32:16;4.03;;;2.87;;
17488;SDS011;8861;52.644;4.734;2022-07-17T01:34:43;3.47;;;2.67;;
17488;SDS011;8861;52.644;4.734;2022-07-17T01:37:10;3.53;;;2.60;;
17488;SDS011;8861;52.644;4.734;2022-07-17T01:39:38;3.53;;;2.67;;
17488;SDS011;8861;52.644;4.734;2022-07-17T01:42:21;4.50;;;2.70;;
17488;SDS011;8861;52.644;4.734;2022-07-17T01:44:48;3.23;;;2.60;;
17488;SDS011;8861;52.644;4.734;2022-07-17T01:47:16;4.23;;;2.90;;
17488;SDS011;8861;52.644;4.734;2022-07-17T01:49:44;5.00;;;2.93;;
17488;SDS011;8861;52.644;4.734;2022-07-17T01:52:11;3.30;;;2.60;;
17488;SDS011;8861;52.644;4.734;2022-07-17T01:54:39;4.23;;;2.83;;
17488;SDS011;8861;52.644;4.734;2022-07-17T01:57:07;3.33;;;2.77;;
17488;SDS011;8861;52.644;4.734;2022-07-17T01:59:35;3.20;;;2.67;;
17488;SDS011;8861;52.644;4.734;2022-07-17T02:02:02;3.27;;;2.60;;
17488;SDS011;8861;52.644;4.734;2022-07-17T02:04:30;3.17;;;2.47;;
17488;SDS011;8861;52.644;4.734;2022-07-17T02:06:57;3.53;;;2.70;;
17488;SDS011;8861;52.644;4.734;2022-07-17T02:09:24;3.23;;;2.50;;
17488;SDS011;8861;52.644;4.734;2022-07-17T02:11:53;3.40;;;2.67;;
17488;SDS011;8861;52.644;4.734;2022-07-17T02:14:19;3.00;;;2.23;;
17488;SDS011;8861;52.644;4.734;2022-07-17T02:16:46;2.63;;;2.30;;
17488;SDS011;8861;52.644;4.734;2022-07-17T02:19:13;2.80;;;2.43;;
17488;SDS011;8861;52.644;4.734;2022-07-17T02:21:40;2.77;;;2.40;;
17488;SDS011;8861;52.644;4.734;2022-07-17T02:24:07;3.47;;;2.60;;
17488;SDS011;8861;52.644;4.734;2022-07-17T02:26:34;2.73;;;2.43;;
17488;SDS011;8861;52.644;4.734;2022-07-17T02:29:03;2.90;;;2.50;;
17488;SDS011;8861;52.644;4.734;2022-07-17T02:31:30;2.60;;;2.40;;
17488;SDS011;8861;52.644;4.734;2022-07-17T02:33:57;3.43;;;2.40;;
17488;SDS011;8861;52.644;4.734;2022-07-17T02:36:23;3.47;;;2.53;;
17488;SDS011;8861;52.644;4.734;2022-07-17T02:38:50;3.90;;;2.40;;
17488;SDS011;8861;52.644;4.734;2022-07-17T02:41:18;2.60;;;2.33;;
17488;SDS011;8861;52.644;4.734;2022-07-17T02:43:45;2.90;;;2.20;;
17488;SDS011;8861;52.644;4.734;2022-07-17T02:46:13;2.57;;;2.37;;
17488;SDS011;8861;52.644;4.734;2022-07-17T02:48:40;2.53;;;2.33;;
17488;SDS011;8861;52.644;4.734;2022-07-17T02:51:07;2.37;;;2.17;;
17488;SDS011;8861;52.644;4.734;2022-07-17T02:53:34;2.70;;;2.20;;
17488;SDS011;8861;52.644;4.734;2022-07-17T02:56:01;2.57;;;2.30;;
17488;SDS011;8861;52.644;4.734;2022-07-17T02:58:27;2.50;;;2.30;;
17488;SDS011;8861;52.644;4.734;2022-07-17T03:00:54;4.03;;;2.23;;
17488;SDS011;8861;52.644;4.734;2022-07-17T03:03:23;3.43;;;2.10;;
17488;SDS011;8861;52.644;4.734;2022-07-17T03:05:50;2.50;;;2.27;;
17488;SDS011;8861;52.644;4.734;2022-07-17T03:08:16;2.67;;;2.30;;
17488;SDS011;8861;52.644;4.734;2022-07-17T03:10:43;2.37;;;2.17;;
17488;SDS011;8861;52.644;4.734;2022-07-17T03:13:10;2.27;;;1.90;;
17488;SDS011;8861;52.644;4.734;2022-07-17T03:15:37;3.13;;;2.30;;
17488;SDS011;8861;52.644;4.734;2022-07-17T03:18:04;2.57;;;2.13;;
17488;SDS011;8861;52.644;4.734;2022-07-17T03:20:32;4.17;;;2.50;;
17488;SDS011;8861;52.644;4.734;2022-07-17T03:22:59;2.57;;;2.37;;
17488;SDS011;8861;52.644;4.734;2022-07-17T03:25:26;3.03;;;2.40;;
17488;SDS011;8861;52.644;4.734;2022-07-17T03:27:53;3.13;;;2.53;;
17488;SDS011;8861;52.644;4.734;2022-07-17T03:30:20;4.47;;;2.60;;
17488;SDS011;8861;52.644;4.734;2022-07-17T03:32:46;3.07;;;2.30;;
17488;SDS011;8861;52.644;4.734;2022-07-17T03:35:13;2.60;;;2.40;;
17488;SDS011;8861;52.644;4.734;2022-07-17T03:37:42;2.97;;;2.50;;
17488;SDS011;8861;52.644;4.734;2022-07-17T03:40:10;3.00;;;2.40;;
17488;SDS011;8861;52.644;4.734;2022-07-17T03:42:37;2.97;;;2.50;;
17488;SDS011;8861;52.644;4.734;2022-07-17T03:45:04;2.87;;;2.57;;
17488;SDS011;8861;52.644;4.734;2022-07-17T03:47:32;2.60;;;2.40;;
17488;SDS011;8861;52.644;4.734;2022-07-17T03:49:59;2.67;;;2.40;;
17488;SDS011;8861;52.644;4.734;2022-07-17T03:52:27;3.20;;;2.90;;
17488;SDS011;8861;52.644;4.734;2022-07-17T03:54:55;2.40;;;2.17;;
17488;SDS011;8861;52.644;4.734;2022-07-17T03:57:22;3.33;;;2.53;;
17488;SDS011;8861;52.644;4.734;2022-07-17T03:59:49;3.43;;;2.30;;
17488;SDS011;8861;52.644;4.734;2022-07-17T04:02:16;2.43;;;2.20;;
17488;SDS011;8861;52.644;4.734;2022-07-17T04:04:42;2.93;;;2.47;;
17488;SDS011;8861;52.644;4.734;2022-07-17T04:07:09;2.77;;;2.57;;
17488;SDS011;8861;52.644;4.734;2022-07-17T04:09:52;2.67;;;2.43;;
17488;SDS011;8861;52.644;4.734;2022-07-17T04:12:20;2.57;;;2.37;;
17488;SDS011;8861;52.644;4.734;2022-07-17T04:14:47;2.43;;;2.23;;
17488;SDS011;8861;52.644;4.734;2022-07-17T04:17:15;2.27;;;1.80;;
17488;SDS011;8861;52.644;4.734;2022-07-17T04:19:42;3.47;;;2.30;;
17488;SDS011;8861;52.644;4.734;2022-07-17T04:22:10;2.57;;;2.17;;
17488;SDS011;8861;52.644;4.734;2022-07-17T04:24:37;2.23;;;2.03;;
17488;SDS011;8861;52.644;4.734;2022-07-17T04:27:03;2.50;;;2.30;;
17488;SDS011;8861;52.644;4.734;2022-07-17T04:29:32;2.30;;;2.13;;
17488;SDS011;8861;52.644;4.734;2022-07-17T04:31:59;2.37;;;2.17;;
17488;SDS011;8861;52.644;4.734;2022-07-17T04:34:27;2.20;;;2.00;;
17488;SDS011;8861;52.644;4.734;2022-07-17T04:36:54;2.20;;;2.00;;
17488;SDS011;8861;52.644;4.734;2022-07-17T04:39:21;2.20;;;1.93;;
17488;SDS011;8861;52.644;4.734;2022-07-17T04:41:49;3.00;;;2.13;;
17488;SDS011;8861;52.644;4.734;2022-07-17T04:44:16;2.27;;;2.10;;
17488;SDS011;8861;52.644;4.734;2022-07-17T04:46:44;2.40;;;2.00;;
17488;SDS011;8861;52.644;4.734;2022-07-17T04:49:11;2.93;;;2.30;;
17488;SDS011;8861;52.644;4.734;2022-07-17T04:51:38;2.60;;;2.40;;
17488;SDS011;8861;52.644;4.734;2022-07-17T04:54:06;2.97;;;2.33;;
17488;SDS011;8861;52.644;4.734;2022-07-17T04:56:32;2.90;;;2.27;;
17488;SDS011;8861;52.644;4.734;2022-07-17T04:58:59;2.53;;;2.17;;
17488;SDS011;8861;52.644;4.734;2022-07-17T05:01:26;2.53;;;2.33;;
17488;SDS011;8861;52.644;4.734;2022-07-17T05:03:54;2.40;;;2.20;;
17488;SDS011;8861;52.644;4.734;2022-07-17T05:06:21;2.73;;;2.37;;
17488;SDS011;8861;52.644;4.734;2022-07-17T05:08:48;3.03;;;2.50;;
17488;SDS011;8861;52.644;4.734;2022-07-17T05:11:15;2.37;;;2.17;;
17488;SDS011;8861;52.644;4.734;2022-07-17T05:13:42;3.67;;;2.43;;
17488;SDS011;8861;52.644;4.734;2022-07-17T05:16:09;2.73;;;2.53;;
17488;SDS011;8861;52.644;4.734;2022-07-17T05:18:36;2.97;;;2.60;;
17488;SDS011;8861;52.644;4.734;2022-07-17T05:21:04;3.20;;;2.30;;
17488;SDS011;8861;52.644;4.734;2022-07-17T05:23:31;3.53;;;2.40;;
17488;SDS011;8861;52.644;4.734;2022-07-17T05:25:57;2.57;;;2.37;;
17488;SDS011;8861;52.644;4.734;2022-07-17T05:28:24;2.80;;;2.50;;
17488;SDS011;8861;52.644;4.734;2022-07-17T05:30:51;2.70;;;2.50;;
17488;SDS011;8861;52.644;4.734;2022-07-17T05:33:18;2.77;;;2.30;;
17488;SDS011;8861;52.644;4.734;2022-07-17T05:35:45;2.60;;;2.10;;
17488;SDS011;8861;52.644;4.734;2022-07-17T05:38:13;4.00;;;2.10;;
17488;SDS011;8861;52.644;4.734;2022-07-17T05:40:41;2.30;;;2.10;;
17488;SDS011;8861;52.644;4.734;2022-07-17T05:43:08;2.87;;;2.40;;
17488;SDS011;8861;52.644;4.734;2022-07-17T05:45:35;4.10;;;2.33;;
17488;SDS011;8861;52.644;4.734;2022-07-17T05:48:04;2.63;;;2.00;;
17488;SDS011;8861;52.644;4.734;2022-07-17T05:50:31;2.40;;;2.00;;
17488;SDS011;8861;52.644;4.734;2022-07-17T05:52:58;3.47;;;2.30;;
17488;SDS011;8861;52.644;4.734;2022-07-17T05:55:26;2.57;;;2.33;;
17488;SDS011;8861;52.644;4.734;2022-07-17T05:57:53;2.70;;;2.20;;
17488;SDS011;8861;52.644;4.734;2022-07-17T06:00:20;2.60;;;2.00;;
17488;SDS011;8861;52.644;4.734;2022-07-17T06:02:47;2.20;;;2.00;;
17488;SDS011;8861;52.644;4.734;2022-07-17T06:05:14;2.63;;;1.87;;
17488;SDS011;8861;52.644;4.734;2022-07-17T06:07:40;2.30;;;1.90;;
17488;SDS011;8861;52.644;4.734;2022-07-17T06:10:08;2.83;;;2.27;;
17488;SDS011;8861;52.644;4.734;2022-07-17T06:12:37;3.40;;;2.10;;
17488;SDS011;8861;52.644;4.734;2022-07-17T06:15:04;2.20;;;2.00;;
17488;SDS011;8861;52.644;4.734;2022-07-17T06:17:31;2.47;;;2.00;;
17488;SDS011;8861;52.644;4.734;2022-07-17T06:19:58;2.10;;;1.90;;
17488;SDS011;8861;52.644;4.734;2022-07-17T06:22:25;3.33;;;2.20;;
17488;SDS011;8861;52.644;4.734;2022-07-17T06:24:52;3.77;;;2.03;;
17488;SDS011;8861;52.644;4.734;2022-07-17T06:27:19;2.43;;;1.90;;
17488;SDS011;8861;52.644;4.734;2022-07-17T06:29:47;3.23;;;2.10;;
17488;SDS011;8861;52.644;4.734;2022-07-17T06:32:14;4.10;;;2.10;;
17488;SDS011;8861;52.644;4.734;2022-07-17T06:34:41;2.57;;;1.97;;
17488;SDS011;8861;52.644;4.734;2022-07-17T06:37:08;3.53;;;2.17;;
17488;SDS011;8861;52.644;4.734;2022-07-17T06:39:35;2.37;;;1.77;;
17488;SDS011;8861;52.644;4.734;2022-07-17T06:42:02;3.33;;;2.00;;
17488;SDS011;8861;52.644;4.734;2022-07-17T06:44:29;5.10;;;2.00;;
17488;SDS011;8861;52.644;4.734;2022-07-17T06:46:58;3.43;;;2.00;;
17488;SDS011;8861;52.644;4.734;2022-07-17T06:49:25;3.23;;;1.90;;
17488;SDS011;8861;52.644;4.734;2022-07-17T06:51:51;2.57;;;1.70;;
17488;SDS011;8861;52.644;4.734;2022-07-17T06:54:18;3.93;;;2.13;;
17488;SDS011;8861;52.644;4.734;2022-07-17T06:56:48;4.17;;;2.03;;
17488;SDS011;8861;52.644;4.734;2022-07-17T06:59:15;3.87;;;2.00;;
17488;SDS011;8861;52.644;4.734;2022-07-17T07:01:42;3.90;;;2.00;;
17488;SDS011;8861;52.644;4.734;2022-07-17T07:04:10;4.53;;;2.10;;
17488;SDS011;8861;52.644;4.734;2022-07-17T07:06:37;2.60;;;1.80;;
17488;SDS011;8861;52.644;4.734;2022-07-17T07:09:04;2.90;;;2.20;;
17488;SDS011;8861;52.644;4.734;2022-07-17T07:11:31;3.70;;;2.43;;
17488;SDS011;8861;52.644;4.734;2022-07-17T07:13:58;3.00;;;1.87;;
17488;SDS011;8861;52.644;4.734;2022-07-17T07:16:25;5.97;;;3.20;;
17488;SDS011;8861;52.644;4.734;2022-07-17T07:18:52;5.67;;;2.83;;
17488;SDS011;8861;52.644;4.734;2022-07-17T07:21:20;3.37;;;2.40;;
17488;SDS011;8861;52.644;4.734;2022-07-17T07:23:48;3.83;;;2.73;;
17488;SDS011;8861;52.644;4.734;2022-07-17T07:26:15;4.10;;;2.70;;
17488;SDS011;8861;52.644;4.734;2022-07-17T07:28:42;8.03;;;3.53;;
17488;SDS011;8861;52.644;4.734;2022-07-17T07:31:09;4.20;;;2.50;;
17488;SDS011;8861;52.644;4.734;2022-07-17T07:33:36;3.90;;;2.40;;
17488;SDS011;8861;52.644;4.734;2022-07-17T07:36:03;4.40;;;2.47;;
17488;SDS011;8861;52.644;4.734;2022-07-17T07:38:32;3.37;;;2.40;;
17488;SDS011;8861;52.644;4.734;2022-07-17T07:40:59;5.23;;;2.70;;
17488;SDS011;8861;52.644;4.734;2022-07-17T07:43:26;4.80;;;2.60;;
17488;SDS011;8861;52.644;4.734;2022-07-17T07:45:53;5.10;;;2.50;;
17488;SDS011;8861;52.644;4.734;2022-07-17T07:48:20;4.97;;;2.43;;
17488;SDS011;8861;52.644;4.734;2022-07-17T07:50:47;3.60;;;2.40;;
17488;SDS011;8861;52.644;4.734;2022-07-17T07:53:14;4.07;;;2.40;;
17488;SDS011;8861;52.644;4.734;2022-07-17T07:55:42;3.73;;;2.43;;
17488;SDS011;8861;52.644;4.734;2022-07-17T07:58:10;3.03;;;2.23;;
17488;SDS011;8861;52.644;4.734;2022-07-17T08:00:38;3.13;;;2.20;;
17488;SDS011;8861;52.644;4.734;2022-07-17T08:03:06;3.47;;;2.10;;
17488;SDS011;8861;52.644;4.734;2022-07-17T08:05:33;2.10;;;1.80;;
17488;SDS011;8861;52.644;4.734;2022-07-17T08:08:01;2.50;;;2.00;;
17488;SDS011;8861;52.644;4.734;2022-07-17T08:10:28;3.10;;;2.10;;
17488;SDS011;8861;52.644;4.734;2022-07-17T08:12:56;2.10;;;1.80;;
17488;SDS011;8861;52.644;4.734;2022-07-17T08:15:23;4.37;;;2.00;;
17488;SDS011;8861;52.644;4.734;2022-07-17T08:17:51;2.60;;;1.90;;
17488;SDS011;8861;52.644;4.734;2022-07-17T08:20:19;5.37;;;2.17;;
17488;SDS011;8861;52.644;4.734;2022-07-17T08:22:47;3.13;;;2.00;;
17488;SDS011;8861;52.644;4.734;2022-07-17T08:25:15;2.97;;;1.93;;
17488;SDS011;8861;52.644;4.734;2022-07-17T08:27:42;3.30;;;1.97;;
17488;SDS011;8861;52.644;4.734;2022-07-17T08:30:12;3.13;;;1.80;;
17488;SDS011;8861;52.644;4.734;2022-07-17T08:32:40;2.47;;;1.93;;
17488;SDS011;8861;52.644;4.734;2022-07-17T08:35:07;2.50;;;2.00;;
17488;SDS011;8861;52.644;4.734;2022-07-17T08:37:45;1.93;;;1.80;;
17488;SDS011;8861;52.644;4.734;2022-07-17T08:40:19;4.00;;;1.90;;
17488;SDS011;8861;52.644;4.734;2022-07-17T08:42:47;2.23;;;1.93;;
17488;SDS011;8861;52.644;4.734;2022-07-17T08:45:15;2.60;;;1.77;;
17488;SDS011;8861;52.644;4.734;2022-07-17T08:47:42;3.40;;;1.93;;
17488;SDS011;8861;52.644;4.734;2022-07-17T08:50:10;3.07;;;2.13;;
17488;SDS011;8861;52.644;4.734;2022-07-17T08:52:39;3.13;;;2.03;;
17488;SDS011;8861;52.644;4.734;2022-07-17T08:55:08;2.20;;;1.63;;
17488;SDS011;8861;52.644;4.734;2022-07-17T08:57:38;2.30;;;1.70;;
17488;SDS011;8861;52.644;4.734;2022-07-17T09:00:06;1.90;;;1.70;;
17488;SDS011;8861;52.644;4.734;2022-07-17T09:02:36;2.70;;;1.80;;
17488;SDS011;8861;52.644;4.734;2022-07-17T09:05:04;3.33;;;1.80;;
17488;SDS011;8861;52.644;4.734;2022-07-17T09:07:33;3.87;;;1.90;;
17488;SDS011;8861;52.644;4.734;2022-07-17T09:09:59;2.67;;;1.90;;
17488;SDS011;8861;52.644;4.734;2022-07-17T09:12:27;2.83;;;2.00;;
17488;SDS011;8861;52.644;4.734;2022-07-17T09:14:56;2.47;;;1.80;;
17488;SDS011;8861;52.644;4.734;2022-07-17T09:17:23;2.00;;;1.70;;
17488;SDS011;8861;52.644;4.734;2022-07-17T09:19:53;3.97;;;2.07;;
17488;SDS011;8861;52.644;4.734;2022-07-17T09:22:21;2.47;;;2.00;;
17488;SDS011;8861;52.644;4.734;2022-07-17T09:24:49;2.30;;;2.00;;
17488;SDS011;8861;52.644;4.734;2022-07-17T09:27:28;2.57;;;1.90;;
17488;SDS011;8861;52.644;4.734;2022-07-17T09:29:57;2.10;;;1.90;;
17488;SDS011;8861;52.644;4.734;2022-07-17T09:32:26;1.77;;;1.67;;
17488;SDS011;8861;52.644;4.734;2022-07-17T09:34:56;2.07;;;1.70;;
17488;SDS011;8861;52.644;4.734;2022-07-17T09:37:24;2.60;;;1.77;;
17488;SDS011;8861;52.644;4.734;2022-07-17T09:39:52;1.77;;;1.43;;
17488;SDS011;8861;52.644;4.734;2022-07-17T09:42:22;1.70;;;1.60;;
17488;SDS011;8861;52.644;4.734;2022-07-17T09:44:56;1.63;;;1.50;;
17488;SDS011;8861;52.644;4.734;2022-07-17T09:47:23;1.97;;;1.70;;
17488;SDS011;8861;52.644;4.734;2022-07-17T09:49:51;2.93;;;1.90;;
17488;SDS011;8861;52.644;4.734;2022-07-17T09:52:21;2.87;;;1.87;;
17488;SDS011;8861;52.644;4.734;2022-07-17T09:54:50;2.27;;;1.80;;
17488;SDS011;8861;52.644;4.734;2022-07-17T09:57:19;1.93;;;1.77;;
17488;SDS011;8861;52.644;4.734;2022-07-17T09:59:46;3.27;;;2.00;;
17488;SDS011;8861;52.644;4.734;2022-07-17T10:02:14;2.60;;;1.70;;
17488;SDS011;8861;52.644;4.734;2022-07-17T10:04:42;2.17;;;1.80;;
17488;SDS011;8861;52.644;4.734;2022-07-17T10:07:09;2.17;;;1.70;;
17488;SDS011;8861;52.644;4.734;2022-07-17T10:09:38;2.43;;;1.70;;
17488;SDS011;8861;52.644;4.734;2022-07-17T10:12:05;2.43;;;1.90;;
17488;SDS011;8861;52.644;4.734;2022-07-17T10:14:33;1.80;;;1.70;;
17488;SDS011;8861;52.644;4.734;2022-07-17T10:17:07;2.13;;;1.93;;
17488;SDS011;8861;52.644;4.734;2022-07-17T10:19:43;2.60;;;1.80;;
17488;SDS011;8861;52.644;4.734;2022-07-17T10:22:12;2.07;;;1.87;;
17488;SDS011;8861;52.644;4.734;2022-07-17T10:24:46;2.57;;;1.73;;
17488;SDS011;8861;52.644;4.734;2022-07-17T10:27:18;4.77;;;1.97;;
17488;SDS011;8861;52.644;4.734;2022-07-17T10:29:46;3.13;;;2.33;;
17488;SDS011;8861;52.644;4.734;2022-07-17T10:32:14;3.37;;;2.20;;
17488;SDS011;8861;52.644;4.734;2022-07-17T10:34:43;3.03;;;1.97;;
17488;SDS011;8861;52.644;4.734;2022-07-17T10:37:18;2.00;;;1.80;;
17488;SDS011;8861;52.644;4.734;2022-07-17T10:39:55;3.23;;;2.00;;
17488;SDS011;8861;52.644;4.734;2022-07-17T10:42:39;2.43;;;2.00;;
17488;SDS011;8861;52.644;4.734;2022-07-17T10:45:11;2.43;;;2.10;;
17488;SDS011;8861;52.644;4.734;2022-07-17T10:47:47;2.63;;;2.23;;
17488;SDS011;8861;52.644;4.734;2022-07-17T10:50:19;2.30;;;2.00;;
17488;SDS011;8861;52.644;4.734;2022-07-17T10:55:32;3.70;;;2.43;;
17488;SDS011;8861;52.644;4.734;2022-07-17T10:58:00;2.87;;;2.27;;
17488;SDS011;8861;52.644;4.734;2022-07-17T11:00:29;3.40;;;2.60;;
17488;SDS011;8861;52.644;4.734;2022-07-17T11:02:56;3.53;;;2.40;;
17488;SDS011;8861;52.644;4.734;2022-07-17T11:05:33;4.00;;;2.80;;
17488;SDS011;8861;52.644;4.734;2022-07-17T11:08:00;4.60;;;3.00;;
17488;SDS011;8861;52.644;4.734;2022-07-17T11:10:35;3.50;;;2.90;;
17488;SDS011;8861;52.644;4.734;2022-07-17T11:13:07;3.80;;;3.07;;
17488;SDS011;8861;52.644;4.734;2022-07-17T11:15:38;4.13;;;2.90;;
17488;SDS011;8861;52.644;4.734;2022-07-17T11:18:09;4.60;;;3.20;;
17488;SDS011;8861;52.644;4.734;2022-07-17T11:20:46;4.23;;;3.00;;
17488;SDS011;8861;52.644;4.734;2022-07-17T11:23:13;4.53;;;2.90;;
17488;SDS011;8861;52.644;4.734;2022-07-17T11:25:51;3.73;;;2.20;;
17488;SDS011;8861;52.644;4.734;2022-07-17T11:28:27;5.67;;;2.40;;
17488;SDS011;8861;52.644;4.734;2022-07-17T11:30:58;3.67;;;2.20;;
17488;SDS011;8861;52.644;4.734;2022-07-17T11:33:26;2.47;;;1.87;;
17488;SDS011;8861;52.644;4.734;2022-07-17T11:35:53;3.97;;;1.80;;
17488;SDS011;8861;52.644;4.734;2022-07-17T11:38:24;3.27;;;2.03;;
17488;SDS011;8861;52.644;4.734;2022-07-17T11:40:53;3.97;;;2.50;;
17488;SDS011;8861;52.644;4.734;2022-07-17T11:43:20;3.57;;;2.30;;
17488;SDS011;8861;52.644;4.734;2022-07-17T11:45:47;3.10;;;2.13;;
17488;SDS011;8861;52.644;4.734;2022-07-17T11:48:14;3.37;;;2.43;;
17488;SDS011;8861;52.644;4.734;2022-07-17T11:50:51;3.13;;;2.10;;
17488;SDS011;8861;52.644;4.734;2022-07-17T11:53:29;3.20;;;2.07;;
17488;SDS011;8861;52.644;4.734;2022-07-17T11:55:59;2.40;;;1.87;;
17488;SDS011;8861;52.644;4.734;2022-07-17T11:58:27;4.63;;;2.13;;
17488;SDS011;8861;52.644;4.734;2022-07-17T12:01:02;2.60;;;1.97;;
17488;SDS011;8861;52.644;4.734;2022-07-17T12:03:29;2.47;;;2.00;;
17488;SDS011;8861;52.644;4.734;2022-07-17T12:05:57;4.03;;;2.17;;
17488;SDS011;8861;52.644;4.734;2022-07-17T12:08:24;2.40;;;1.90;;
17488;SDS011;8861;52.644;4.734;2022-07-17T12:11:00;4.60;;;1.80;;
17488;SDS011;8861;52.644;4.734;2022-07-17T12:13:37;3.63;;;1.50;;
17488;SDS011;8861;52.644;4.734;2022-07-17T12:16:18;2.40;;;1.43;;
17488;SDS011;8861;52.644;4.734;2022-07-17T12:19:00;2.30;;;1.40;;
17488;SDS011;8861;52.644;4.734;2022-07-17T12:21:30;2.20;;;1.30;;
17488;SDS011;8861;52.644;4.734;2022-07-17T12:23:59;1.57;;;1.20;;
17488;SDS011;8861;52.644;4.734;2022-07-17T12:26:30;2.20;;;1.30;;
17488;SDS011;8861;52.644;4.734;2022-07-17T12:28:57;2.10;;;1.40;;
17488;SDS011;8861;52.644;4.734;2022-07-17T12:31:25;3.23;;;1.40;;
17488;SDS011;8861;52.644;4.734;2022-07-17T12:33:53;2.77;;;1.30;;
17488;SDS011;8861;52.644;4.734;2022-07-17T12:36:21;2.07;;;1.33;;
17488;SDS011;8861;52.644;4.734;2022-07-17T12:38:48;2.07;;;1.40;;
17488;SDS011;8861;52.644;4.734;2022-07-17T12:41:15;1.33;;;1.23;;
17488;SDS011;8861;52.644;4.734;2022-07-17T12:43:44;2.03;;;1.47;;
17488;SDS011;8861;52.644;4.734;2022-07-17T12:46:11;3.70;;;1.67;;
17488;SDS011;8861;52.644;4.734;2022-07-17T12:48:39;2.83;;;1.80;;
17488;SDS011;8861;52.644;4.734;2022-07-17T12:51:08;3.37;;;1.90;;
17488;SDS011;8861;52.644;4.734;2022-07-17T12:53:38;2.50;;;1.60;;
17488;SDS011;8861;52.644;4.734;2022-07-17T12:56:06;3.87;;;1.90;;
17488;SDS011;8861;52.644;4.734;2022-07-17T12:58:33;2.43;;;2.00;;
17488;SDS011;8861;52.644;4.734;2022-07-17T13:01:02;3.37;;;2.00;;
17488;SDS011;8861;52.644;4.734;2022-07-17T13:03:30;2.80;;;1.70;;
17488;SDS011;8861;52.644;4.734;2022-07-17T13:05:57;2.27;;;1.77;;
17488;SDS011;8861;52.644;4.734;2022-07-17T13:08:25;2.43;;;1.80;;
17488;SDS011;8861;52.644;4.734;2022-07-17T13:10:53;1.77;;;1.67;;
17488;SDS011;8861;52.644;4.734;2022-07-17T13:13:20;3.97;;;1.77;;
17488;SDS011;8861;52.644;4.734;2022-07-17T13:15:47;2.73;;;1.97;;
17488;SDS011;8861;52.644;4.734;2022-07-17T13:18:15;2.60;;;2.00;;
17488;SDS011;8861;52.644;4.734;2022-07-17T13:20:42;2.93;;;2.00;;
17488;SDS011;8861;52.644;4.734;2022-07-17T13:23:08;3.30;;;2.10;;
17488;SDS011;8861;52.644;4.734;2022-07-17T13:25:35;2.57;;;1.90;;
17488;SDS011;8861;52.644;4.734;2022-07-17T13:28:02;3.73;;;2.10;;
17488;SDS011;8861;52.644;4.734;2022-07-17T13:30:30;3.37;;;2.30;;
17488;SDS011;8861;52.644;4.734;2022-07-17T13:32:58;2.40;;;2.10;;
17488;SDS011;8861;52.644;4.734;2022-07-17T13:35:26;3.40;;;2.20;;
17488;SDS011;8861;52.644;4.734;2022-07-17T13:37:53;2.77;;;2.30;;
17488;SDS011;8861;52.644;4.734;2022-07-17T13:40:22;2.40;;;1.83;;
17488;SDS011;8861;52.644;4.734;2022-07-17T13:42:49;4.37;;;2.03;;
17488;SDS011;8861;52.644;4.734;2022-07-17T13:45:17;2.53;;;1.93;;
17488;SDS011;8861;52.644;4.734;2022-07-17T13:47:43;2.20;;;2.00;;
17488;SDS011;8861;52.644;4.734;2022-07-17T13:50:10;2.03;;;1.83;;
17488;SDS011;8861;52.644;4.734;2022-07-17T13:52:39;3.53;;;1.70;;
17488;SDS011;8861;52.644;4.734;2022-07-17T13:55:06;2.90;;;1.80;;
17488;SDS011;8861;52.644;4.734;2022-07-17T13:57:33;2.33;;;1.70;;
17488;SDS011;8861;52.644;4.734;2022-07-17T14:00:01;2.47;;;1.90;;
17488;SDS011;8861;52.644;4.734;2022-07-17T14:02:28;3.27;;;1.70;;
17488;SDS011;8861;52.644;4.734;2022-07-17T14:04:55;2.43;;;1.80;;
17488;SDS011;8861;52.644;4.734;2022-07-17T14:07:22;2.03;;;1.83;;
17488;SDS011;8861;52.644;4.734;2022-07-17T14:09:50;4.50;;;1.90;;
17488;SDS011;8861;52.644;4.734;2022-07-17T14:12:17;2.97;;;1.90;;
17488;SDS011;8861;52.644;4.734;2022-07-17T14:14:44;3.10;;;1.60;;
17488;SDS011;8861;52.644;4.734;2022-07-17T14:17:11;2.27;;;1.57;;
17488;SDS011;8861;52.644;4.734;2022-07-17T14:19:38;1.80;;;1.57;;
17488;SDS011;8861;52.644;4.734;2022-07-17T14:22:05;1.87;;;1.43;;
17488;SDS011;8861;52.644;4.734;2022-07-17T14:24:32;2.30;;;1.60;;
17488;SDS011;8861;52.644;4.734;2022-07-17T14:27:00;3.37;;;1.50;;
17488;SDS011;8861;52.644;4.734;2022-07-17T14:29:27;2.33;;;1.77;;
17488;SDS011;8861;52.644;4.734;2022-07-17T14:31:54;2.17;;;1.67;;
17488;SDS011;8861;52.644;4.734;2022-07-17T14:34:20;3.30;;;1.63;;
17488;SDS011;8861;52.644;4.734;2022-07-17T14:36:48;4.43;;;1.70;;
17488;SDS011;8861;52.644;4.734;2022-07-17T14:39:15;2.10;;;1.40;;
17488;SDS011;8861;52.644;4.734;2022-07-17T14:41:42;1.47;;;1.33;;
17488;SDS011;8861;52.644;4.734;2022-07-17T14:44:12;2.53;;;1.60;;
17488;SDS011;8861;52.644;4.734;2022-07-17T14:46:39;1.87;;;1.40;;
17488;SDS011;8861;52.644;4.734;2022-07-17T14:49:06;1.43;;;1.30;;
17488;SDS011;8861;52.644;4.734;2022-07-17T14:51:33;1.53;;;1.30;;
17488;SDS011;8861;52.644;4.734;2022-07-17T14:54:00;1.43;;;1.30;;
17488;SDS011;8861;52.644;4.734;2022-07-17T14:56:27;1.50;;;1.10;;
17488;SDS011;8861;52.644;4.734;2022-07-17T14:58:54;1.80;;;1.37;;
17488;SDS011;8861;52.644;4.734;2022-07-17T15:01:23;1.47;;;1.27;;
17488;SDS011;8861;52.644;4.734;2022-07-17T15:03:49;1.70;;;1.50;;
17488;SDS011;8861;52.644;4.734;2022-07-17T15:06:16;1.50;;;1.30;;
17488;SDS011;8861;52.644;4.734;2022-07-17T15:08:43;1.77;;;1.40;;